Time;durP1;ratioP1;P1;durP2;ratioP2;P2;SDS_P1;SDS_P2;PMS_P1;PMS_P2;Temp;Humidity;BMP_temperature;BMP_pressure;BME280_temperature;BME280_humidity;BME280_pressure;Samples;Min_cycle;Max_cycle;Signal;HPM_P1;HPM_P2
2021/11/14 00:00:29;;;;;;;18.27;11.63;;;8.70;99.90;;;9.88;100.00;100583.75;5080804;28;20046;-82
2021/11/14 00:02:59;;;;;;;19.10;11.57;;;8.80;99.90;;;9.88;100.00;100583.75;5031146;28;20507;-81
2021/11/14 00:05:27;;;;;;;18.88;11.45;;;8.80;99.90;;;9.86;100.00;100589.66;5045787;28;20040;-80
2021/11/14 00:07:53;;;;;;;19.08;12.02;;;8.70;99.90;;;9.86;100.00;100595.25;5060872;28;20031;-80
2021/11/14 00:10:21;;;;;;;18.17;11.63;;;8.70;99.90;;;9.87;100.00;100591.31;5043309;28;20021;-81
2021/11/14 00:12:47;;;;;;;17.90;12.90;;;8.70;99.90;;;9.86;100.00;100591.66;5025842;28;20084;-82
2021/11/14 00:15:13;;;;;;;19.50;12.95;;;8.70;99.90;;;9.82;100.00;100597.16;5056624;28;20352;-82
2021/11/14 00:17:39;;;;;;;19.17;12.13;;;8.70;99.90;;;9.78;100.00;100589.84;5056771;28;20063;-79
2021/11/14 00:20:13;;;;;;;23.10;14.18;;;8.70;99.90;;;9.80;100.00;100596.69;5041663;28;20399;-79
2021/11/14 00:22:39;;;;;;;19.48;12.73;;;8.70;99.90;;;9.79;100.00;100591.47;5025567;28;20399;-79
2021/11/14 00:25:13;;;;;;;21.95;13.93;;;8.70;99.90;;;9.75;100.00;100588.56;5059150;28;20067;-81
2021/11/14 00:27:40;;;;;;;18.40;12.38;;;8.70;99.90;;;9.75;100.00;100596.13;5057428;28;20055;-82
2021/11/14 00:30:07;;;;;;;21.17;12.50;;;8.70;99.90;;;9.75;100.00;100594.16;5040501;28;20025;-81
2021/11/14 00:32:33;;;;;;;19.48;12.60;;;8.60;99.90;;;9.71;100.00;100597.97;5058913;28;20033;-82
2021/11/14 00:34:59;;;;;;;20.23;12.07;;;8.60;99.90;;;9.72;100.00;100602.41;5040579;28;20043;-82
2021/11/14 00:37:25;;;;;;;19.60;12.88;;;8.60;99.90;;;9.67;100.00;100597.88;5058408;28;20527;-81
2021/11/14 00:39:53;;;;;;;22.13;13.60;;;8.60;99.90;;;9.62;100.00;100600.09;5056748;28;20029;-80
2021/11/14 00:42:19;;;;;;;17.15;11.73;;;8.60;99.90;;;9.62;100.00;100595.34;5039842;28;20025;-82
2021/11/14 00:44:45;;;;;;;21.23;13.02;;;8.50;99.90;;;9.60;100.00;100597.66;5059042;28;20036;-81
2021/11/14 00:47:11;;;;;;;16.42;12.30;;;8.60;99.90;;;9.59;100.00;100604.41;5060403;28;20408;-79
2021/11/14 00:49:37;;;;;;;19.33;12.98;;;8.60;99.90;;;9.61;100.00;100602.09;5044856;28;20039;-81
2021/11/14 00:52:05;;;;;;;16.52;11.63;;;8.50;99.90;;;9.54;100.00;100602.69;5061521;28;20060;-82
2021/11/14 00:54:31;;;;;;;18.27;12.25;;;8.50;99.90;;;9.51;100.00;100606.16;5056747;28;20400;-82
2021/11/14 00:56:57;;;;;;;16.80;10.80;;;8.50;99.90;;;9.47;100.00;100601.66;5089784;23;20045;-77
2021/11/14 00:59:23;;;;;;;14.10;9.32;;;8.50;99.90;;;9.52;100.00;100602.22;5074343;28;20028;-78
2021/11/14 01:01:49;;;;;;;16.30;10.63;;;8.50;99.90;;;9.39;100.00;100602.59;5064490;28;20028;-78
2021/11/14 01:04:15;;;;;;;12.73;9.50;;;8.40;99.90;;;9.49;100.00;100604.91;5076948;28;20028;-78
2021/11/14 01:06:40;;;;;;;20.02;10.90;;;8.40;99.90;;;9.47;100.00;100610.81;5096430;28;20070;-79
2021/11/14 01:09:07;;;;;;;14.52;10.57;;;8.40;99.90;;;9.51;100.00;100608.97;5098237;28;20422;-78
2021/11/14 01:11:33;;;;;;;15.80;10.32;;;8.40;99.90;;;9.50;100.00;100617.69;5094739;28;20028;-78
2021/11/14 01:13:59;;;;;;;13.85;9.70;;;8.40;99.90;;;9.45;100.00;100615.94;5075665;28;20028;-78
2021/11/14 01:16:25;;;;;;;14.13;11.35;;;8.40;99.90;;;9.35;100.00;100623.97;5075982;28;20032;-80
2021/11/14 01:18:52;;;;;;;14.05;9.10;;;8.40;99.90;;;9.37;100.00;100624.44;5075754;28;20043;-78
2021/11/14 01:21:19;;;;;;;12.00;9.13;;;8.40;99.90;;;9.34;100.00;100619.56;5075889;28;20256;-77
2021/11/14 01:23:50;;;;;;;19.00;12.43;;;8.30;99.90;;;9.24;100.00;100622.84;5093766;28;20540;-78
2021/11/14 01:26:17;;;;;;;12.60;10.15;;;8.30;99.90;;;9.18;100.00;100632.59;5059427;28;20028;-78
2021/11/14 01:28:43;;;;;;;15.73;10.50;;;8.20;99.90;;;9.12;100.00;100632.00;5076092;28;20106;-78
2021/11/14 01:31:10;;;;;;;15.05;10.57;;;8.10;99.90;;;9.13;100.00;100639.22;5075171;28;20122;-80
2021/11/14 01:33:36;;;;;;;17.13;10.80;;;8.10;99.90;;;8.99;100.00;100635.94;5093521;28;20060;-77
2021/11/14 01:36:04;;;;;;;16.55;10.55;;;8.00;99.90;;;8.94;100.00;100639.78;5093411;28;20032;-79
2021/11/14 01:38:31;;;;;;;17.88;12.02;;;7.90;99.90;;;8.93;100.00;100635.38;5075212;28;20043;-77
2021/11/14 01:41:09;;;;;;;16.52;11.25;;;7.90;99.90;;;8.90;100.00;100641.63;5075570;28;20445;-79
2021/11/14 01:43:49;;;;;;;16.27;11.25;;;7.90;99.90;;;8.92;100.00;100646.88;5093710;28;20111;-78
2021/11/14 01:46:18;;;;;;;15.93;10.77;;;7.90;99.90;;;8.95;100.00;100655.34;5075483;28;20027;-79
2021/11/14 01:48:48;;;;;;;15.07;10.68;;;7.90;99.90;;;8.94;100.00;100652.91;5059161;28;20063;-77
2021/11/14 01:51:14;;;;;;;17.65;12.43;;;7.90;99.90;;;8.97;100.00;100655.81;5093622;28;20024;-79
2021/11/14 01:53:41;;;;;;;15.02;10.90;;;7.90;99.90;;;8.96;100.00;100653.34;5093707;28;20119;-80
2021/11/14 01:56:14;;;;;;;16.10;10.93;;;8.00;99.90;;;9.05;100.00;100653.25;5058450;28;20181;-78
2021/11/14 01:58:42;;;;;;;16.92;10.25;;;8.00;99.90;;;9.04;100.00;100652.44;5092601;28;20434;-79
2021/11/14 02:01:25;;;;;;;16.15;10.98;;;8.00;99.90;;;9.07;100.00;100657.31;5092303;28;20043;-78
2021/11/14 02:03:57;;;;;;;15.45;10.93;;;8.00;99.90;;;9.09;100.00;100656.94;5095201;28;20028;-77
2021/11/14 02:06:26;;;;;;;15.95;10.90;;;8.00;99.90;;;9.09;100.00;100654.97;5078489;28;20119;-77
2021/11/14 02:08:54;;;;;;;17.13;10.85;;;8.00;99.90;;;9.12;100.00;100664.66;5081828;28;20016;-78
2021/11/14 02:11:22;;;;;;;16.45;11.88;;;8.10;99.90;;;9.14;100.00;100659.53;5100057;28;20057;-79
2021/11/14 02:13:51;;;;;;;15.48;10.43;;;8.10;99.90;;;9.14;100.00;100665.91;5064704;28;20035;-78
2021/11/14 02:16:27;;;;;;;16.13;10.50;;;8.10;99.90;;;9.17;100.00;100668.00;5093591;28;20567;-78
2021/11/14 02:18:54;;;;;;;17.17;11.13;;;8.10;99.90;;;9.18;100.00;100666.84;5075580;28;20039;-76
2021/11/14 02:21:22;;;;;;;17.33;10.48;;;8.10;99.90;;;9.06;100.00;100671.59;5092790;28;20047;-79
2021/11/14 02:23:51;;;;;;;15.18;10.35;;;8.00;99.90;;;8.91;100.00;100673.91;5074190;28;20035;-78
2021/11/14 02:26:22;;;;;;;14.65;10.75;;;8.00;99.90;;;8.93;100.00;100663.22;5074437;28;20032;-78
2021/11/14 02:28:50;;;;;;;16.67;11.05;;;7.90;99.90;;;8.87;100.00;100669.38;5074714;28;20020;-78
2021/11/14 02:31:17;;;;;;;16.08;10.93;;;7.80;99.90;;;8.81;100.00;100671.56;5093502;28;20051;-78
2021/11/14 02:33:43;;;;;;;18.10;10.88;;;7.80;99.90;;;8.75;100.00;100667.38;5074741;28;20032;-78
2021/11/14 02:36:12;;;;;;;18.83;11.73;;;7.70;99.90;;;8.73;100.00;100675.25;5075000;28;20114;-80
2021/11/14 02:38:40;;;;;;;14.23;10.20;;;7.70;99.90;;;8.70;100.00;100675.94;5091481;28;20499;-78
2021/11/14 02:41:10;;;;;;;16.90;10.68;;;7.70;99.90;;;8.65;100.00;100675.34;5058059;28;20036;-79
2021/11/14 02:43:41;;;;;;;17.27;10.40;;;7.60;99.90;;;8.60;100.00;100678.38;5073791;28;20051;-78
2021/11/14 02:46:08;;;;;;;14.18;10.00;;;7.60;99.90;;;8.56;100.00;100685.78;5092065;28;20027;-78
2021/11/14 02:48:35;;;;;;;15.90;9.50;;;7.50;99.90;;;8.44;100.00;100683.78;5091145;28;20038;-79
2021/11/14 02:51:08;;;;;;;13.95;9.57;;;7.50;99.90;;;8.47;100.00;100685.88;5074306;28;20119;-78
2021/11/14 02:53:35;;;;;;;13.38;9.55;;;7.50;99.90;;;8.38;100.00;100691.50;5091507;28;20130;-80
2021/11/14 02:56:02;;;;;;;13.32;9.15;;;7.40;99.90;;;8.36;100.00;100685.50;5091740;28;20032;-79
2021/11/14 02:58:31;;;;;;;13.98;9.25;;;7.40;99.90;;;8.34;100.00;100695.34;5092581;28;20511;-79
2021/11/14 03:01:12;;;;;;;15.85;10.10;;;7.30;99.90;;;8.34;100.00;100706.47;5074096;28;20436;-80
2021/11/14 03:03:40;;;;;;;12.95;9.63;;;7.30;99.90;;;8.39;100.00;100709.03;5091779;28;20448;-78
2021/11/14 03:06:09;;;;;;;15.15;11.15;;;7.40;99.90;;;8.40;100.00;100710.66;5092032;28;20043;-78
2021/11/14 03:08:37;;;;;;;18.10;11.07;;;7.30;99.90;;;8.43;100.00;100708.03;5092029;28;20020;-78
2021/11/14 03:11:05;;;;;;;14.55;9.60;;;7.40;99.90;;;8.41;100.00;100712.31;5074233;28;20035;-79
2021/11/14 03:13:32;;;;;;;15.27;10.57;;;7.40;99.90;;;8.41;100.00;100712.31;5092439;28;20020;-79
2021/11/14 03:16:09;;;;;;;16.58;11.30;;;7.30;99.90;;;8.34;100.00;100712.84;5076664;28;20499;-80
2021/11/14 03:18:35;;;;;;;14.27;9.95;;;7.30;99.90;;;8.32;100.00;100715.16;5087898;28;20032;-82
2021/11/14 03:21:02;;;;;;;16.10;11.10;;;7.30;99.90;;;8.32;100.00;100712.38;5103302;28;20103;-81
2021/11/14 03:23:29;;;;;;;16.00;9.90;;;7.30;99.90;;;8.30;100.00;100714.69;5079187;28;20031;-78
2021/11/14 03:25:59;;;;;;;16.08;11.10;;;7.30;99.90;;;8.33;100.00;100716.78;5095029;28;20121;-76
2021/11/14 03:28:28;;;;;;;16.45;11.35;;;7.30;99.90;;;8.31;100.00;100712.72;5086248;28;20028;-82
2021/11/14 03:30:58;;;;;;;18.65;11.27;;;7.30;99.90;;;8.34;100.00;100717.59;5084232;28;20052;-81
2021/11/14 03:33:26;;;;;;;14.73;10.55;;;7.30;99.90;;;8.27;100.00;100722.88;5095342;28;20034;-80
2021/11/14 03:36:09;;;;;;;20.67;10.93;;;7.30;99.90;;;8.16;100.00;100728.03;5097515;28;20035;-82
2021/11/14 03:38:49;;;;;;;15.23;9.80;;;7.20;99.90;;;8.13;100.00;100731.50;5081268;28;20067;-82
2021/11/14 03:41:29;;;;;;;16.27;10.25;;;7.10;99.90;;;8.04;100.00;100730.75;5086470;28;20657;-81
2021/11/14 03:43:56;;;;;;;14.45;9.85;;;7.10;99.90;;;7.93;100.00;100735.88;5114211;28;20032;-80
2021/11/14 03:46:24;;;;;;;13.25;9.82;;;7.00;99.90;;;7.84;100.00;100731.53;5112388;28;20119;-80
2021/11/14 03:48:55;;;;;;;18.75;11.38;;;6.90;99.90;;;7.80;100.00;100742.53;5082225;28;20382;-77
2021/11/14 03:51:24;;;;;;;14.35;9.60;;;6.90;99.90;;;7.74;100.00;100738.31;5097127;28;20081;-81
2021/11/14 03:53:56;;;;;;;15.70;11.70;;;6.80;99.90;;;7.74;100.00;100748.63;5078355;28;20504;-80
2021/11/14 03:56:25;;;;;;;17.25;11.13;;;6.80;99.90;;;7.79;100.00;100754.00;5078139;28;20032;-79
2021/11/14 03:58:51;;;;;;;17.75;10.93;;;6.80;99.90;;;7.67;100.00;100765.03;5096574;28;20051;-77
2021/11/14 04:01:23;;;;;;;14.15;9.93;;;6.70;99.90;;;7.69;100.00;100763.53;5095160;28;20039;-80
2021/11/14 04:03:52;;;;;;;14.50;9.32;;;6.70;99.90;;;7.65;100.00;100751.47;5094476;28;20028;-78
2021/11/14 04:06:21;;;;;;;17.30;10.27;;;6.70;99.90;;;7.59;100.00;100763.09;5095599;28;20077;-77
2021/11/14 04:08:48;;;;;;;17.60;10.15;;;6.60;99.90;;;7.60;100.00;100764.75;5095353;28;20055;-79
2021/11/14 04:11:16;;;;;;;14.23;9.68;;;6.60;99.90;;;7.54;100.00;100766.91;5095347;28;20024;-80
2021/11/14 04:13:42;;;;;;;18.52;10.65;;;6.60;99.90;;;7.57;100.00;100769.03;5095460;28;20108;-77
2021/11/14 04:16:09;;;;;;;14.65;9.80;;;6.60;99.90;;;7.48;100.00;100773.00;5076523;28;20095;-79
2021/11/14 04:18:37;;;;;;;16.38;10.48;;;6.50;99.90;;;7.42;100.00;100778.72;5095556;28;20089;-78
2021/11/14 04:21:07;;;;;;;13.93;9.27;;;6.50;99.90;;;7.36;100.00;100774.50;5095005;28;20028;-78
2021/11/14 04:23:35;;;;;;;14.60;9.43;;;6.40;99.90;;;7.26;100.00;100783.19;5094822;28;20027;-78
2021/11/14 04:26:03;;;;;;;15.20;9.18;;;6.30;99.90;;;7.22;100.00;100793.38;5094700;28;20474;-76
2021/11/14 04:28:28;;;;;;;14.27;10.48;;;6.20;99.90;;;7.24;100.00;100791.06;5093289;28;20094;-80
2021/11/14 04:30:55;;;;;;;13.43;8.45;;;6.30;99.90;;;7.23;100.00;100794.16;5094900;28;20024;-79
2021/11/14 04:33:22;;;;;;;16.77;9.18;;;6.30;99.90;;;7.20;100.00;100794.81;5095050;28;20505;-77
2021/11/14 04:35:49;;;;;;;14.57;9.40;;;6.20;99.90;;;7.19;100.00;100802.34;5076430;28;20395;-80
2021/11/14 04:38:16;;;;;;;15.23;9.70;;;6.20;99.90;;;7.21;100.00;100800.06;5093687;28;20036;-78
2021/11/14 04:40:43;;;;;;;16.75;10.88;;;6.30;99.90;;;7.22;100.00;100804.47;5094687;28;20035;-79
2021/11/14 04:43:17;;;;;;;15.23;10.27;;;6.30;99.90;;;7.29;100.00;100807.53;5093484;28;20035;-78
2021/11/14 04:45:52;;;;;;;14.70;9.90;;;6.30;99.90;;;7.31;100.00;100807.22;5094500;28;20024;-80
2021/11/14 04:48:22;;;;;;;15.05;10.25;;;6.30;99.90;;;7.36;100.00;100810.63;5094575;28;20475;-79
2021/11/14 04:50:49;;;;;;;13.48;9.93;;;6.40;99.90;;;7.40;100.00;100810.78;5060086;28;20031;-80
2021/11/14 04:53:16;;;;;;;14.73;10.43;;;6.40;99.90;;;7.43;100.00;100816.47;5094278;28;20032;-77
2021/11/14 04:55:43;;;;;;;16.42;10.57;;;6.40;99.90;;;7.51;100.00;100820.38;5094135;28;20028;-78
2021/11/14 04:58:13;;;;;;;14.27;9.82;;;6.50;99.90;;;7.54;100.00;100827.25;5094799;28;20097;-78
2021/11/14 05:00:50;;;;;;;21.95;11.45;;;6.50;99.90;;;7.57;100.00;100830.16;5076190;28;20101;-78
2021/11/14 05:03:18;;;;;;;20.13;11.90;;;6.60;99.90;;;7.66;100.00;100835.69;5093890;28;20399;-78
2021/11/14 05:05:45;;;;;;;18.20;12.55;;;6.60;99.90;;;7.69;100.00;100835.84;5075861;28;20020;-78
2021/11/14 05:08:11;;;;;;;17.45;11.00;;;6.70;99.90;;;7.73;100.00;100849.88;5075995;28;20085;-77
2021/11/14 05:10:40;;;;;;;23.77;13.75;;;6.70;99.90;;;7.72;100.00;100851.84;5053934;28;20083;-79
2021/11/14 05:13:06;;;;;;;21.17;13.93;;;6.70;99.90;;;7.72;100.00;100846.28;5035701;28;20039;-78
2021/11/14 05:15:34;;;;;;;20.10;13.60;;;6.70;99.90;;;7.78;100.00;100856.06;5056626;28;20033;-76
2021/11/14 05:18:00;;;;;;;20.52;13.00;;;6.80;99.90;;;7.82;100.00;100854.25;5051091;28;20789;-81
2021/11/14 05:20:26;;;;;;;22.42;12.88;;;6.80;99.90;;;7.77;100.00;100854.41;5057417;28;20021;-78
2021/11/14 05:22:52;;;;;;;20.52;12.93;;;6.80;99.90;;;7.79;100.00;100857.69;5057167;28;20052;-79
2021/11/14 05:25:20;;;;;;;16.30;11.77;;;6.80;99.90;;;7.80;100.00;100852.97;5070492;28;20033;-79
2021/11/14 05:27:47;;;;;;;19.95;12.55;;;6.80;99.90;;;7.85;100.00;100855.53;5055333;28;20052;-79
2021/11/14 05:30:15;;;;;;;17.70;12.10;;;6.80;99.90;;;7.82;100.00;100862.59;5035962;28;20059;-78
2021/11/14 05:32:40;;;;;;;18.92;10.93;;;6.80;99.90;;;7.85;100.00;100864.69;5036147;28;20033;-78
2021/11/14 05:35:09;;;;;;;15.50;10.57;;;6.80;99.90;;;7.86;100.00;100871.09;5052222;28;20082;-79
2021/11/14 05:37:35;;;;;;;18.05;11.07;;;6.80;99.90;;;7.87;100.00;100873.50;5035673;28;20045;-79
2021/11/14 05:40:06;;;;;;;17.58;11.45;;;6.80;99.90;;;7.83;100.00;100869.75;5035645;28;20461;-79
2021/11/14 05:42:33;;;;;;;15.65;11.05;;;6.80;99.90;;;7.89;100.00;100884.31;5052046;28;20124;-80
2021/11/14 05:44:59;;;;;;;16.45;11.32;;;6.80;99.90;;;7.82;100.00;100890.41;5035544;28;20037;-80
2021/11/14 05:47:27;;;;;;;20.83;10.75;;;6.80;99.90;;;7.84;100.00;100876.97;5053198;28;20036;-78
2021/11/14 05:49:53;;;;;;;14.52;11.00;;;6.80;99.90;;;7.83;100.00;100891.22;5035640;28;20055;-78
2021/11/14 05:52:19;;;;;;;18.65;11.88;;;6.80;99.90;;;7.86;100.00;100894.16;5053572;28;20115;-80
2021/11/14 05:54:46;;;;;;;17.83;11.48;;;6.80;99.90;;;7.86;100.00;100902.50;5053204;28;20040;-80
2021/11/14 05:57:12;;;;;;;19.10;12.00;;;6.80;99.90;;;7.79;100.00;100902.19;5051822;28;20056;-79
2021/11/14 06:02:13;;;;;;;18.83;13.50;;;6.80;99.90;;;7.76;100.00;100902.88;5053685;28;20062;-79
2021/11/14 06:07:05;;;;;;;19.92;12.32;;;6.80;99.90;;;7.82;100.00;100914.59;5053448;28;20025;-80
2021/11/14 06:09:31;;;;;;;17.42;11.77;;;6.80;99.90;;;7.84;100.00;100915.91;5075799;28;20036;-80
2021/11/14 06:11:57;;;;;;;19.15;12.70;;;6.80;99.90;;;7.84;100.00;100918.69;5094019;28;20024;-80
2021/11/14 06:14:23;;;;;;;18.13;12.50;;;6.90;99.90;;;7.86;100.00;100921.13;5093714;28;20028;-83
2021/11/14 06:16:50;;;;;;;19.00;12.38;;;6.80;99.90;;;7.84;100.00;100924.25;5094264;28;20047;-80
2021/11/14 06:19:16;;;;;;;20.88;12.82;;;6.80;99.90;;;7.85;100.00;100931.44;5094059;28;20036;-81
2021/11/14 06:21:42;;;;;;;19.58;13.40;;;6.80;99.90;;;7.81;100.00;100936.03;5094948;28;20028;-83
2021/11/14 06:24:07;;;;;;;21.90;13.55;;;6.80;99.90;;;7.75;100.00;100945.72;5094361;28;20058;-83
2021/11/14 06:26:33;;;;;;;18.13;13.07;;;6.80;99.90;;;7.81;100.00;100951.91;5094207;28;20049;-81
2021/11/14 06:29:00;;;;;;;22.33;13.48;;;6.80;99.90;;;7.77;100.00;100956.50;5075193;28;20028;-77
2021/11/14 06:31:26;;;;;;;21.33;14.23;;;6.80;99.90;;;7.75;100.00;100967.94;5092967;28;20027;-80
2021/11/14 06:33:52;;;;;;;22.70;15.60;;;6.80;99.90;;;7.79;100.00;100956.97;5074450;28;20032;-77
2021/11/14 06:36:18;;;;;;;24.38;15.02;;;6.80;99.90;;;7.79;100.00;100971.72;5092900;28;20062;-79
2021/11/14 06:38:44;;;;;;;23.50;14.75;;;6.70;99.90;;;7.63;100.00;100978.94;5093175;28;20387;-78
2021/11/14 06:41:10;;;;;;;24.92;15.60;;;6.70;99.90;;;7.66;100.00;100969.94;5092897;28;20028;-78
2021/11/14 06:43:36;;;;;;;24.60;15.48;;;6.70;99.90;;;7.62;100.00;100977.31;5092752;28;20100;-77
2021/11/14 06:46:03;;;;;;;23.23;15.40;;;6.70;99.90;;;7.59;100.00;100985.47;5075626;28;20024;-78
2021/11/14 06:48:32;;;;;;;23.98;15.93;;;6.70;99.90;;;7.61;100.00;100992.34;5092682;28;20398;-79
2021/11/14 06:50:58;;;;;;;24.05;14.75;;;6.70;99.90;;;7.63;100.00;100995.63;5073942;28;20428;-79
2021/11/14 06:53:25;;;;;;;27.85;15.02;;;6.70;99.90;;;7.59;100.00;100997.44;5092629;28;20111;-76
2021/11/14 06:58:22;;;;;;;25.70;15.18;;;6.60;99.90;;;7.61;100.00;101011.81;5100507;22;20044;-86
2021/11/14 07:00:50;;;;;;;24.25;15.45;;;6.60;99.90;;;7.57;100.00;101012.81;5064031;28;20052;-86
2021/11/14 07:03:16;;;;;;;29.15;15.63;;;6.70;99.90;;;7.58;100.00;101017.22;5079832;28;20044;-86
2021/11/14 07:05:42;;;;;;;27.73;15.65;;;6.60;99.90;;;7.60;100.00;101020.50;5082243;28;20112;-87
2021/11/14 07:08:09;;;;;;;26.25;14.95;;;6.60;99.90;;;7.58;100.00;101018.03;5063957;28;20036;-85
2021/11/14 07:10:35;;;;;;;26.02;15.38;;;6.60;99.90;;;7.58;100.00;101023.56;5085842;22;20045;-83
2021/11/14 07:13:02;;;;;;;27.02;16.15;;;6.60;99.90;;;7.56;100.00;101025.88;4997098;28;20026;-82
2021/11/14 07:15:28;;;;;;;23.92;15.40;;;6.60;99.90;;;7.56;100.00;101037.00;5014958;28;20526;-81
2021/11/14 07:17:54;;;;;;;26.33;14.50;;;6.60;99.90;;;7.52;100.00;101027.69;5015176;28;20117;-82
2021/11/14 07:20:20;;;;;;;26.23;14.88;;;6.60;99.90;;;7.42;100.00;101033.56;4996804;28;20041;-81
2021/11/14 07:22:47;;;;;;;23.75;15.20;;;6.60;99.90;;;7.47;100.00;101027.84;5014300;28;20066;-84
2021/11/14 07:25:19;;;;;;;27.45;15.32;;;6.50;99.90;;;7.39;100.00;101043.38;4998053;28;20497;-81
2021/11/14 07:27:51;;;;;;;26.15;14.93;;;6.50;99.90;;;7.41;100.00;101048.63;4997872;28;20053;-82
2021/11/14 07:30:21;;;;;;;25.23;14.98;;;6.50;99.90;;;7.45;100.00;101046.00;5015729;28;20060;-82
2021/11/14 07:32:50;;;;;;;24.65;14.88;;;6.50;99.90;;;7.48;100.00;101051.72;4998220;28;20026;-82
2021/11/14 07:35:19;;;;;;;25.92;14.45;;;6.50;99.90;;;7.46;100.00;101056.78;4998256;28;20037;-81
2021/11/14 07:37:46;;;;;;;28.23;16.48;;;6.50;99.90;;;7.41;100.00;101051.41;5017025;28;20037;-81
2021/11/14 07:40:17;;;;;;;28.02;15.05;;;6.50;99.90;;;7.48;100.00;101059.25;4982021;28;20061;-82
2021/11/14 07:42:44;;;;;;;28.83;15.68;;;6.50;99.90;;;7.57;100.00;101057.28;4965771;28;20038;-80
2021/11/14 07:45:15;;;;;;;27.67;15.07;;;6.50;99.90;;;7.62;100.00;101062.66;4997786;28;20033;-81
2021/11/14 07:47:44;;;;;;;28.02;15.55;;;6.60;99.90;;;7.66;100.00;101061.69;5014507;28;20061;-83
2021/11/14 07:50:13;;;;;;;24.73;14.70;;;6.70;99.90;;;7.68;100.00;101072.47;5014975;28;20030;-81
2021/11/14 07:52:39;;;;;;;25.45;15.75;;;6.70;99.90;;;7.60;100.00;101076.91;4999073;28;20393;-82
2021/11/14 07:55:08;;;;;;;29.65;15.68;;;6.70;99.90;;;7.65;100.00;101082.28;4998360;28;20224;-81
2021/11/14 07:57:36;;;;;;;30.88;17.13;;;6.70;99.90;;;7.65;100.00;101081.47;4998753;28;20535;-81
2021/11/14 08:00:07;;;;;;;30.50;16.38;;;6.70;99.90;;;7.69;100.00;101080.50;4998416;28;20464;-82
2021/11/14 08:02:33;;;;;;;27.95;16.25;;;6.80;99.90;;;7.79;100.00;101087.69;4983482;28;20122;-83
2021/11/14 08:04:59;;;;;;;28.13;16.38;;;6.80;99.90;;;7.87;100.00;101087.66;5017935;28;20026;-84
2021/11/14 08:07:25;;;;;;;29.75;15.52;;;6.80;99.90;;;7.99;100.00;101092.56;5000785;28;20469;-82
2021/11/14 08:09:50;;;;;;;27.08;15.52;;;6.90;99.90;;;8.19;100.00;101097.41;5032228;28;20045;-83
2021/11/14 08:12:16;;;;;;;28.42;15.85;;;7.10;99.90;;;8.26;100.00;101094.94;5037542;28;20029;-82
2021/11/14 08:14:43;;;;;;;23.33;14.98;;;7.20;99.90;;;8.31;100.00;101105.94;5020652;28;20029;-82
2021/11/14 08:17:09;;;;;;;30.55;16.13;;;7.30;99.90;;;8.46;100.00;101110.97;5035661;28;20029;-81
2021/11/14 08:19:35;;;;;;;26.48;15.50;;;7.40;99.90;;;8.43;100.00;101119.16;5018920;28;20029;-84
2021/11/14 08:22:01;;;;;;;30.85;16.05;;;7.50;99.90;;;8.38;100.00;101120.13;5018889;28;20449;-82
2021/11/14 08:24:27;;;;;;;32.28;15.80;;;7.50;99.90;;;8.42;100.00;101128.66;5019723;28;20389;-82
2021/11/14 08:26:52;;;;;;;29.38;15.95;;;7.50;99.90;;;8.45;100.00;101122.41;5037023;28;20033;-84
2021/11/14 08:29:19;;;;;;;29.52;15.98;;;7.50;99.90;;;8.40;100.00;101125.38;5035945;28;20022;-82
2021/11/14 08:31:45;;;;;;;27.20;15.18;;;7.50;99.90;;;8.53;100.00;101131.91;5019152;28;20098;-80
2021/11/14 08:34:11;;;;;;;24.50;14.27;;;7.60;99.90;;;8.57;100.00;101130.09;5021003;28;20056;-81
2021/11/14 08:36:36;;;;;;;24.38;13.95;;;7.60;99.90;;;8.66;100.00;101137.25;5041065;28;20095;-82
2021/11/14 08:39:04;;;;;;;24.33;14.13;;;7.70;99.90;;;8.42;100.00;101142.56;5022202;28;20034;-83
2021/11/14 08:41:32;;;;;;;22.75;13.20;;;7.70;99.90;;;8.52;100.00;101144.19;5021416;28;20378;-80
2021/11/14 08:43:58;;;;;;;24.80;13.23;;;7.70;99.90;;;8.63;100.00;101143.50;5037619;28;20165;-83
2021/11/14 08:46:24;;;;;;;28.45;15.70;;;7.70;99.90;;;8.78;100.00;101142.94;5039257;28;20025;-85
2021/11/14 08:48:51;;;;;;;24.67;14.45;;;7.80;99.90;;;8.71;100.00;101141.81;5021639;28;20370;-85
2021/11/14 08:51:17;;;;;;;24.75;15.38;;;7.80;99.90;;;8.69;100.00;101141.34;5038431;28;20025;-83
2021/11/14 08:53:43;;;;;;;23.08;13.40;;;7.80;99.90;;;8.66;100.00;101148.41;5025819;28;20088;-85
2021/11/14 08:56:09;;;;;;;23.92;13.35;;;7.70;99.90;;;8.66;100.00;101147.56;5025975;28;20029;-81
2021/11/14 08:58:37;;;;;;;24.27;14.20;;;7.70;99.90;;;8.61;100.00;101153.31;5038592;28;20030;-83
2021/11/14 09:01:09;;;;;;;24.40;14.00;;;7.70;99.90;;;8.42;100.00;101150.91;5005371;28;20034;-83
2021/11/14 09:03:36;;;;;;;26.30;14.05;;;7.70;99.90;;;8.44;100.00;101157.00;5022326;28;20036;-84
2021/11/14 09:06:04;;;;;;;25.75;13.98;;;7.60;99.90;;;8.46;100.00;101154.69;5038714;28;20029;-83
2021/11/14 09:08:30;;;;;;;25.30;14.43;;;7.60;99.90;;;8.50;100.00;101161.22;5019332;28;20025;-80
2021/11/14 09:10:56;;;;;;;25.48;13.98;;;7.60;99.90;;;8.55;100.00;101163.00;5016534;28;20037;-82
2021/11/14 09:13:26;;;;;;;27.10;14.35;;;7.60;99.90;;;8.62;100.00;101166.91;5018655;28;20080;-81
2021/11/14 09:15:53;;;;;;;22.98;13.55;;;7.70;99.90;;;8.84;100.00;101163.06;5017761;28;20029;-80
2021/11/14 09:18:19;;;;;;;22.95;13.55;;;7.80;99.90;;;8.93;100.00;101163.84;5017239;28;20144;-83
2021/11/14 09:20:47;;;;;;;23.33;13.50;;;7.90;99.90;;;9.09;100.00;101175.22;5001817;28;20468;-84
2021/11/14 09:23:16;;;;;;;19.70;11.45;;;8.00;99.90;;;9.08;100.00;101177.22;5019720;28;20113;-83
2021/11/14 09:25:43;;;;;;;22.13;12.43;;;8.10;99.90;;;9.21;100.00;101173.38;5018923;28;20072;-83
2021/11/14 09:28:13;;;;;;;21.08;12.05;;;8.10;99.90;;;9.30;100.00;101163.00;5001868;28;20025;-81
2021/11/14 09:30:45;;;;;;;23.33;12.70;;;8.30;99.90;;;9.28;100.00;101172.88;4985573;28;20030;-82
2021/11/14 09:33:12;;;;;;;19.17;11.82;;;8.30;99.90;;;9.23;100.00;101179.44;4969988;28;20065;-84
2021/11/14 09:35:38;;;;;;;18.52;12.00;;;8.30;99.90;;;9.42;100.00;101178.97;4985174;28;20029;-84
2021/11/14 09:38:06;;;;;;;18.65;11.30;;;8.40;99.90;;;9.53;100.00;101188.59;5015375;28;20044;-83
2021/11/14 09:40:32;;;;;;;18.42;11.90;;;8.50;99.90;;;9.57;100.00;101185.97;5015261;28;20080;-84
2021/11/14 09:42:58;;;;;;;18.70;12.02;;;8.60;99.90;;;9.43;100.00;101178.66;4998915;28;20072;-85
2021/11/14 09:45:31;;;;;;;19.55;11.07;;;8.60;99.90;;;9.60;100.00;101190.88;4998162;28;20045;-83
2021/11/14 09:47:59;;;;;;;18.60;10.05;;;8.60;99.90;;;9.70;100.00;101201.59;4981466;28;20072;-81
2021/11/14 09:50:27;;;;;;;17.63;10.13;;;8.60;99.90;;;9.96;100.00;101191.88;4996900;28;20073;-82
2021/11/14 09:52:56;;;;;;;15.98;9.88;;;8.80;99.90;;;10.02;99.85;101193.31;4981248;28;20466;-84
2021/11/14 09:55:25;;;;;;;16.20;10.20;;;8.90;99.90;;;10.04;99.76;101201.34;4997464;28;20129;-83
2021/11/14 09:57:53;;;;;;;16.83;10.95;;;8.90;99.90;;;10.20;98.75;101204.34;4983015;28;20030;-84
2021/11/14 10:00:25;;;;;;;17.90;9.93;;;9.00;99.90;;;10.01;98.34;101210.41;5016903;28;20061;-84
2021/11/14 10:02:51;;;;;;;16.73;10.63;;;9.00;99.90;;;9.78;98.06;101207.13;5014298;28;20030;-82
2021/11/14 10:05:17;;;;;;;15.55;10.23;;;8.90;99.90;;;9.84;99.01;101200.19;5014340;28;20036;-83
2021/11/14 10:08:08;;;;;;;17.95;10.60;;;8.90;99.90;;;9.76;98.65;101205.84;5015582;28;20465;-83
2021/11/14 10:10:54;;;;;;;18.20;10.75;;;8.80;99.90;;;9.79;98.94;101205.16;5036475;28;20130;-82
2021/11/14 10:13:33;;;;;;;16.50;10.20;;;8.80;99.90;;;9.76;98.70;101200.25;5019161;28;20488;-83
2021/11/14 10:16:16;;;;;;;18.42;11.75;;;8.80;99.90;;;9.67;99.42;101200.31;5018768;28;20063;-84
2021/11/14 10:19:08;;;;;;;18.38;11.38;;;8.80;99.90;;;9.87;98.92;101201.47;5042108;28;20035;-80